createdAt,value
2023-01-19T00:01:45.738Z,2.40
2023-01-19T00:04:13.947Z,2.40
2023-01-19T00:06:41.990Z,2.40
2023-01-19T00:09:10.133Z,2.40
2023-01-19T00:11:38.239Z,2.40
2023-01-19T00:14:06.443Z,2.40
2023-01-19T00:20:16.679Z,2.40
2023-01-19T00:22:44.740Z,2.30
2023-01-19T00:25:12.910Z,2.30
2023-01-19T00:27:41.007Z,2.20
2023-01-19T00:30:10.347Z,2.20
2023-01-19T00:32:38.385Z,2.10
2023-01-19T00:35:06.961Z,2.00
2023-01-19T00:37:36.414Z,2.00
2023-01-19T00:40:04.759Z,2.00
2023-01-19T00:42:41.845Z,2.10
2023-01-19T00:45:11.646Z,2.10
2023-01-19T00:47:40.334Z,2.10
2023-01-19T00:50:11.699Z,2.10
2023-01-19T00:52:41.793Z,2.10
2023-01-19T00:55:11.917Z,2.20
2023-01-19T00:57:40.635Z,2.20
2023-01-19T01:00:12.988Z,2.20
2023-01-19T01:02:42.264Z,2.20
2023-01-19T01:05:11.521Z,2.30
2023-01-19T01:07:41.992Z,2.30
2023-01-19T01:10:11.527Z,2.30
2023-01-19T01:12:40.135Z,2.30
2023-01-19T01:15:10.544Z,2.40
2023-01-19T01:17:47.657Z,2.30
2023-01-19T01:20:18.121Z,2.30
2023-01-19T01:22:50.331Z,2.40
2023-01-19T01:25:22.551Z,2.30
2023-01-19T01:27:50.980Z,2.30
2023-01-19T01:30:19.660Z,2.40
2023-01-19T01:32:47.778Z,2.30
2023-01-19T01:35:16.320Z,2.30
2023-01-19T01:37:44.365Z,2.30
2023-01-19T01:44:20.599Z,2.20
2023-01-19T01:46:48.725Z,2.20
2023-01-19T01:49:18.448Z,2.20
2023-01-19T01:51:49.415Z,2.10
2023-01-19T01:54:20.932Z,2.10
2023-01-19T01:56:50.752Z,2.10
2023-01-19T01:59:26.771Z,2.10
2023-01-19T02:02:14.562Z,2.00
2023-01-19T02:04:50.057Z,2.00
2023-01-19T02:07:41.154Z,1.90
2023-01-19T02:10:27.633Z,1.90
2023-01-19T02:13:14.063Z,1.80
2023-01-19T02:15:43.484Z,1.70
2023-01-19T02:18:11.941Z,1.70
2023-01-19T02:20:42.888Z,1.60
2023-01-19T02:23:16.821Z,1.60
2023-01-19T02:25:46.829Z,1.60
2023-01-19T02:28:15.927Z,1.60
2023-01-19T02:30:44.736Z,1.60
2023-01-19T02:33:12.869Z,1.60
2023-01-19T02:35:42.420Z,1.60
2023-01-19T02:38:11.968Z,1.60
2023-01-19T02:40:43.676Z,1.60
2023-01-19T02:43:13.486Z,1.70
2023-01-19T02:45:44.153Z,1.70
2023-01-19T02:48:12.353Z,1.70
2023-01-19T02:50:46.196Z,1.70
2023-01-19T02:53:33.437Z,1.60
2023-01-19T02:56:10.049Z,1.60
2023-01-19T02:58:47.403Z,1.50
2023-01-19T03:06:44.728Z,1.20
2023-01-19T03:09:18.438Z,1.20
2023-01-19T03:11:51.489Z,1.20
2023-01-19T03:14:24.547Z,1.20
2023-01-19T03:16:56.017Z,1.30
2023-01-19T03:19:28.118Z,1.20
2023-01-19T03:21:59.909Z,1.30
2023-01-19T03:24:31.971Z,1.30
2023-01-19T03:27:02.896Z,1.30
2023-01-19T03:29:35.824Z,1.20
2023-01-19T03:32:09.267Z,1.10
2023-01-19T03:34:37.988Z,1.00
2023-01-19T03:37:08.614Z,0.90
2023-01-19T03:39:36.723Z,1.00
2023-01-19T03:42:07.873Z,0.90
2023-01-19T03:44:40.370Z,0.90
2023-01-19T03:47:10.976Z,0.90
2023-01-19T03:49:41.500Z,0.90
2023-01-19T03:52:09.613Z,0.90
2023-01-19T03:54:37.968Z,0.90
2023-01-19T03:57:06.025Z,0.90
2023-01-19T03:59:34.567Z,0.90
2023-01-19T04:02:04.081Z,0.90
2023-01-19T04:04:32.090Z,0.90
2023-01-19T04:07:01.299Z,0.90
2023-01-19T04:09:30.210Z,0.90
2023-01-19T04:11:58.244Z,0.90
2023-01-19T04:14:26.399Z,0.90
2023-01-19T04:16:54.718Z,1.00
2023-01-19T04:19:24.697Z,0.90
2023-01-19T04:21:53.110Z,0.90
2023-01-19T04:24:21.148Z,1.00
2023-01-19T04:26:49.240Z,1.00
2023-01-19T04:29:17.253Z,1.00
2023-01-19T04:31:45.331Z,1.10
2023-01-19T04:34:13.402Z,1.10
2023-01-19T04:36:42.802Z,1.10
2023-01-19T04:39:12.380Z,1.10
2023-01-19T04:41:40.473Z,1.20
2023-01-19T04:44:08.655Z,1.10
2023-01-19T04:46:36.725Z,1.20
2023-01-19T04:49:04.842Z,1.10
2023-01-19T04:51:34.303Z,1.10
2023-01-19T04:54:04.035Z,1.10
2023-01-19T04:56:32.125Z,1.10
2023-01-19T04:59:00.387Z,1.20
2023-01-19T05:01:29.134Z,1.10
2023-01-19T05:04:00.112Z,1.10
2023-01-19T05:06:28.185Z,1.20
2023-01-19T05:08:56.197Z,1.10
2023-01-19T05:11:25.687Z,1.20
2023-01-19T05:13:53.863Z,1.20
2023-01-19T05:16:23.090Z,1.10
2023-01-19T05:18:51.169Z,1.20
2023-01-19T05:21:19.239Z,1.20
2023-01-19T05:23:47.353Z,1.20
2023-01-19T05:26:15.386Z,1.20
2023-01-19T05:28:44.873Z,1.20
2023-01-19T05:31:13.114Z,1.20
2023-01-19T05:33:41.361Z,1.30
2023-01-19T05:36:09.809Z,1.20
2023-01-19T05:38:38.025Z,1.20
2023-01-19T05:41:06.370Z,1.30
2023-01-19T05:47:26.656Z,1.30
2023-01-19T05:49:55.179Z,1.30
2023-01-19T05:52:25.012Z,1.30
2023-01-19T05:54:55.089Z,1.30
2023-01-19T05:57:23.717Z,1.30
2023-01-19T05:59:51.793Z,1.30
2023-01-19T06:02:19.867Z,1.30
2023-01-19T06:04:49.347Z,1.30
2023-01-19T06:07:17.369Z,1.40
2023-01-19T06:09:45.422Z,1.40
2023-01-19T06:12:13.528Z,1.50
2023-01-19T06:14:41.596Z,1.40
2023-01-19T06:17:09.703Z,1.40
2023-01-19T06:19:37.806Z,1.40
2023-01-19T06:22:07.575Z,1.30
2023-01-19T06:24:35.797Z,1.30
2023-01-19T06:27:03.858Z,1.30
2023-01-19T06:29:31.893Z,1.30
2023-01-19T06:32:00.083Z,1.30
2023-01-19T06:34:29.138Z,1.40
2023-01-19T06:36:57.481Z,1.30
2023-01-19T06:39:27.457Z,1.40
2023-01-19T06:41:55.541Z,1.40
2023-01-19T06:44:23.575Z,1.40
2023-01-19T06:46:51.643Z,1.40
2023-01-19T06:49:39.643Z,1.40
2023-01-19T06:52:07.819Z,1.50
2023-01-19T06:54:37.205Z,1.50
2023-01-19T06:57:05.971Z,1.40
2023-01-19T06:59:34.060Z,1.40
2023-01-19T07:02:26.165Z,1.40
2023-01-19T07:04:50.612Z,1.30
2023-01-19T07:07:18.834Z,1.40
2023-01-19T07:09:48.326Z,1.30
2023-01-19T07:12:16.367Z,1.20
2023-01-19T07:14:44.496Z,1.20
2023-01-19T07:17:13.783Z,1.20
2023-01-19T07:19:41.930Z,1.20
2023-01-19T07:22:09.981Z,1.20
2023-01-19T07:24:38.417Z,1.20
2023-01-19T07:27:08.320Z,1.20
2023-01-19T07:29:36.339Z,1.30
2023-01-19T07:32:04.541Z,1.30
2023-01-19T07:34:32.710Z,1.40
2023-01-19T07:37:00.734Z,1.30
2023-01-19T07:39:28.775Z,1.30
2023-01-19T07:41:56.796Z,1.30
2023-01-19T07:44:26.257Z,1.40
2023-01-19T07:46:54.293Z,1.40
2023-01-19T07:49:22.372Z,1.40
2023-01-19T07:51:50.375Z,1.40
2023-01-19T07:54:18.462Z,1.50
2023-01-19T07:56:46.950Z,1.50
2023-01-19T07:59:15.116Z,1.50
2023-01-19T08:01:44.627Z,1.50
2023-01-19T08:04:12.845Z,1.40
2023-01-19T08:06:41.657Z,1.50
2023-01-19T08:09:10.073Z,1.50
2023-01-19T08:11:38.136Z,1.40
2023-01-19T08:26:09.065Z,1.50
2023-01-19T08:28:38.467Z,1.50
2023-01-19T08:31:19.517Z,1.50
2023-01-19T08:33:48.358Z,1.50
2023-01-19T08:36:16.614Z,1.50
2023-01-19T08:38:45.831Z,1.50
2023-01-19T08:41:16.528Z,1.50
2023-01-19T08:43:46.113Z,1.50
2023-01-19T08:46:17.034Z,1.60
2023-01-19T08:48:45.415Z,1.80
2023-01-19T08:51:15.362Z,2.00
2023-01-19T08:53:43.839Z,2.30
2023-01-19T08:56:13.833Z,2.80
2023-01-19T08:58:42.321Z,3.20
2023-01-19T09:01:14.060Z,3.60
2023-01-19T09:03:42.231Z,4.00
2023-01-19T09:06:10.948Z,4.30
2023-01-19T09:08:39.315Z,4.60
2023-01-19T09:11:12.266Z,4.80
2023-01-19T09:13:41.296Z,4.50
2023-01-19T09:16:13.331Z,4.20
2023-01-19T09:18:41.544Z,4.00
2023-01-19T09:21:10.467Z,3.80
2023-01-19T09:23:38.906Z,3.60
2023-01-19T09:26:07.423Z,3.50
2023-01-19T09:28:35.781Z,3.40
2023-01-19T09:31:07.629Z,3.30
2023-01-19T09:33:37.571Z,3.20
2023-01-19T09:36:05.956Z,3.20
2023-01-19T09:38:34.281Z,3.10
2023-01-19T09:41:04.330Z,3.00
2023-01-19T09:43:39.982Z,2.90
2023-01-19T09:46:14.300Z,2.90
2023-01-19T09:48:48.401Z,2.90
2023-01-19T09:51:22.834Z,3.10
2023-01-19T09:54:04.973Z,3.30
2023-01-19T09:56:33.611Z,3.50
2023-01-19T09:59:02.322Z,3.60
2023-01-19T10:01:39.072Z,3.50
2023-01-19T10:04:28.256Z,3.40
2023-01-19T10:07:06.585Z,3.40
2023-01-19T10:09:42.895Z,3.40
2023-01-19T10:12:19.164Z,3.60
2023-01-19T10:14:54.125Z,3.80
2023-01-19T10:17:37.594Z,3.90
2023-01-19T10:20:16.078Z,4.00
2023-01-19T10:22:46.508Z,4.10
2023-01-19T10:25:20.341Z,4.10
2023-01-19T10:27:48.943Z,3.90
2023-01-19T10:30:23.456Z,3.80
2023-01-19T10:32:52.619Z,3.80
2023-01-19T10:35:25.138Z,3.60
2023-01-19T10:37:56.376Z,3.50
2023-01-19T10:40:33.318Z,3.30
2023-01-19T10:43:01.864Z,3.20
2023-01-19T10:45:32.506Z,3.10
2023-01-19T10:48:06.758Z,3.20
2023-01-19T10:50:39.855Z,3.10
2023-01-19T10:53:21.600Z,3.10
2023-01-19T10:56:09.713Z,3.10
2023-01-19T10:58:37.796Z,3.10
2023-01-19T11:01:16.612Z,3.10
2023-01-19T11:03:45.509Z,3.20
2023-01-19T11:06:30.745Z,3.30
2023-01-19T11:09:16.570Z,3.30
2023-01-19T11:11:47.190Z,3.30
2023-01-19T11:14:18.983Z,3.30
2023-01-19T11:16:49.374Z,3.40
2023-01-19T11:19:23.161Z,3.30
2023-01-19T11:21:53.208Z,3.30
2023-01-19T11:24:21.976Z,3.30
2023-01-19T11:26:57.650Z,3.30
2023-01-19T11:29:27.971Z,3.30
2023-01-19T11:31:57.753Z,3.30
2023-01-19T11:34:33.743Z,3.40
2023-01-19T11:45:30.233Z,3.40
2023-01-19T11:48:05.451Z,3.50
2023-01-19T11:50:38.470Z,3.50
2023-01-19T11:53:10.443Z,3.50
2023-01-19T11:55:44.732Z,3.50
2023-01-19T11:58:16.090Z,3.50
2023-01-19T12:00:48.021Z,3.50
2023-01-19T12:03:23.069Z,3.50
2023-01-19T12:05:53.532Z,3.50
2023-01-19T12:08:26.962Z,3.50
2023-01-19T12:10:58.598Z,3.50
2023-01-19T12:13:28.686Z,3.60
2023-01-19T12:16:01.227Z,3.60
2023-01-19T12:18:35.055Z,3.50
2023-01-19T12:21:04.267Z,3.60
2023-01-19T12:23:49.267Z,3.70
2023-01-19T12:26:28.940Z,3.60
2023-01-19T12:29:01.374Z,3.60
2023-01-19T12:31:29.786Z,3.70
2023-01-19T12:34:31.412Z,3.70
2023-01-19T12:37:04.199Z,3.70
2023-01-19T12:39:34.035Z,3.80
2023-01-19T12:42:08.903Z,3.80
2023-01-19T12:44:37.516Z,3.80
2023-01-19T12:47:22.221Z,3.80
2023-01-19T12:49:53.679Z,3.80
2023-01-19T12:52:30.816Z,3.90
2023-01-19T12:55:04.143Z,3.90
2023-01-19T12:57:36.246Z,3.90
2023-01-19T13:00:08.247Z,3.90
2023-01-19T13:02:47.039Z,3.90
2023-01-19T13:05:19.468Z,3.90
2023-01-19T13:08:27.316Z,4.00
2023-01-19T13:11:20.945Z,4.00
2023-01-19T13:14:25.531Z,4.10
2023-01-19T13:17:02.305Z,4.10
2023-01-19T13:19:51.436Z,4.10
2023-01-19T13:22:53.004Z,4.10
2023-01-19T13:25:31.242Z,4.10
2023-01-19T13:27:59.780Z,4.10
2023-01-19T13:30:30.074Z,4.10
2023-01-19T13:33:05.758Z,4.20
2023-01-19T13:35:33.859Z,4.10
2023-01-19T13:38:04.670Z,4.10
2023-01-19T13:40:39.999Z,4.10
2023-01-19T13:43:17.630Z,4.00
2023-01-19T13:45:51.743Z,4.00
2023-01-19T13:48:23.341Z,3.90
2023-01-19T13:50:59.845Z,3.90
2023-01-19T13:53:30.554Z,4.00
2023-01-19T13:56:20.756Z,4.00
2023-01-19T13:59:10.348Z,4.10
2023-01-19T14:01:40.851Z,4.10
2023-01-19T14:04:27.811Z,4.30
2023-01-19T14:06:58.661Z,4.30
2023-01-19T14:09:28.205Z,4.30
2023-01-19T14:12:16.297Z,4.20
2023-01-19T14:14:46.780Z,4.00
2023-01-19T14:17:26.512Z,3.90
2023-01-19T14:19:56.226Z,3.80
2023-01-19T14:22:39.848Z,3.70
2023-01-19T14:25:30.198Z,3.60
2023-01-19T14:28:29.801Z,3.50
2023-01-19T14:30:59.457Z,3.50
2023-01-19T14:33:43.741Z,3.50
2023-01-19T14:36:23.023Z,3.50
2023-01-19T14:38:52.609Z,3.50
2023-01-19T14:41:28.370Z,3.60
2023-01-19T14:43:57.079Z,3.60
2023-01-19T14:46:26.592Z,3.60
2023-01-19T14:49:01.702Z,3.70
2023-01-19T14:51:30.404Z,3.70
2023-01-19T14:54:00.818Z,3.70
2023-01-19T14:56:31.680Z,3.70
2023-01-19T14:59:02.523Z,3.70
2023-01-19T15:01:31.507Z,3.70
2023-01-19T15:03:59.902Z,3.80
2023-01-19T15:06:28.130Z,3.80
2023-01-19T15:08:56.725Z,3.80
2023-01-19T15:11:27.813Z,3.70
2023-01-19T15:17:47.957Z,3.60
2023-01-19T15:20:18.427Z,3.50
2023-01-19T15:34:20.479Z,3.20
2023-01-19T15:36:48.581Z,3.10
2023-01-19T15:39:16.753Z,3.10
2023-01-19T15:41:44.937Z,3.00
2023-01-19T15:44:13.044Z,3.00
2023-01-19T15:46:41.190Z,3.00
2023-01-19T15:49:09.284Z,3.00
2023-01-19T15:51:38.831Z,2.90
2023-01-19T15:54:06.946Z,2.90
2023-01-19T15:56:35.048Z,2.90
2023-01-19T15:59:03.167Z,2.90
2023-01-19T16:01:32.787Z,2.90
2023-01-19T16:04:02.419Z,2.90
2023-01-19T16:06:30.765Z,2.90
2023-01-19T16:09:01.444Z,2.80
2023-01-19T16:11:31.112Z,2.80
2023-01-19T16:13:59.525Z,2.80
2023-01-19T16:16:28.694Z,2.70
2023-01-19T16:18:57.373Z,2.70
2023-01-19T16:21:25.581Z,2.60
2023-01-19T16:23:53.961Z,2.50
2023-01-19T16:26:30.334Z,2.50
2023-01-19T16:29:00.537Z,2.40
2023-01-19T16:31:29.571Z,2.30
2023-01-19T16:33:57.817Z,2.20
2023-01-19T16:36:27.947Z,2.10
2023-01-19T16:38:59.250Z,2.10
2023-01-19T16:41:30.060Z,2.00
2023-01-19T16:43:59.115Z,2.00
2023-01-19T16:46:29.872Z,1.90
2023-01-19T16:49:01.588Z,1.80
2023-01-19T16:51:30.050Z,1.80
2023-01-19T16:53:58.320Z,1.70
2023-01-19T16:56:27.930Z,1.70
2023-01-19T16:58:56.721Z,1.80
2023-01-19T17:01:26.196Z,1.70
2023-01-19T17:03:54.795Z,1.70
2023-01-19T17:06:24.177Z,1.70
2023-01-19T17:08:53.135Z,1.60
2023-01-19T17:11:23.492Z,1.50
2023-01-19T17:13:55.410Z,1.40
2023-01-19T17:16:24.299Z,1.40
2023-01-19T17:18:52.662Z,1.30
2023-01-19T17:21:21.114Z,1.20
2023-01-19T17:23:51.000Z,1.30
2023-01-19T17:26:19.698Z,1.30
2023-01-19T17:28:48.085Z,1.20
2023-01-19T17:31:20.132Z,1.20
2023-01-19T17:33:49.698Z,1.20
2023-01-19T17:36:22.208Z,1.10
2023-01-19T17:38:50.575Z,1.10
2023-01-19T17:41:20.343Z,1.10
2023-01-19T17:43:50.317Z,1.10
2023-01-19T17:46:21.413Z,1.10
2023-01-19T17:48:53.300Z,1.10
2023-01-19T17:51:22.875Z,1.10
2023-01-19T17:53:51.715Z,1.00
2023-01-19T17:56:22.121Z,0.90
2023-01-19T17:58:51.083Z,0.90
2023-01-19T18:01:22.921Z,0.80
2023-01-19T18:03:51.268Z,0.70
2023-01-19T18:06:19.538Z,0.70
2023-01-19T18:08:48.770Z,0.80
2023-01-19T18:11:18.648Z,0.70
2023-01-19T18:13:48.107Z,0.60
2023-01-19T18:16:18.719Z,0.60
2023-01-19T18:18:49.651Z,0.60
2023-01-19T18:21:20.276Z,0.50
2023-01-19T18:23:48.562Z,0.50
2023-01-19T18:26:18.739Z,0.50
2023-01-19T18:28:47.392Z,0.40
2023-01-19T18:31:16.906Z,0.40
2023-01-19T18:33:45.352Z,0.40
2023-01-19T18:36:15.700Z,0.40
2023-01-19T18:38:43.817Z,0.40
2023-01-19T18:41:13.691Z,0.40
2023-01-19T18:43:41.997Z,0.40
2023-01-19T18:46:10.773Z,0.40
2023-01-19T18:48:39.625Z,0.30
2023-01-19T18:51:08.666Z,0.20
2023-01-19T18:53:38.315Z,0.10
2023-01-19T18:56:07.390Z,0.00
2023-01-19T18:58:38.546Z,0.00
2023-01-19T19:01:18.434Z,0.10
2023-01-19T19:03:46.655Z,0.10
2023-01-19T19:06:15.722Z,0.20
2023-01-19T19:08:45.204Z,0.10
2023-01-19T19:11:14.245Z,0.20
2023-01-19T19:13:42.442Z,0.20
2023-01-19T19:16:13.212Z,0.10
2023-01-19T19:18:41.510Z,0.20
2023-01-19T19:21:11.022Z,0.20
2023-01-19T19:23:39.751Z,0.10
2023-01-19T19:26:13.384Z,0.10
2023-01-19T19:28:42.334Z,0.10
2023-01-19T19:31:12.723Z,0.00
2023-01-19T19:33:41.251Z,-0.10
2023-01-19T19:36:10.194Z,-0.10
2023-01-19T19:38:39.423Z,-0.10
2023-01-19T19:41:10.617Z,0.00
2023-01-19T19:43:39.183Z,0.00
2023-01-19T19:46:08.720Z,0.00
2023-01-19T19:48:39.200Z,0.10
2023-01-19T19:51:17.665Z,0.10
2023-01-19T19:53:46.553Z,0.00
2023-01-19T19:56:16.440Z,0.00
2023-01-19T19:58:44.538Z,0.00
2023-01-19T20:01:14.100Z,0.00
2023-01-19T20:03:43.126Z,-0.10
2023-01-19T20:06:12.563Z,0.00
2023-01-19T20:08:40.695Z,-0.10
2023-01-19T20:11:11.222Z,-0.10
2023-01-19T20:13:42.503Z,0.00
2023-01-19T20:16:12.632Z,0.20
2023-01-19T20:18:42.245Z,0.30
2023-01-19T20:21:15.558Z,0.40
2023-01-19T20:23:44.894Z,0.40
2023-01-19T20:26:15.303Z,0.50
2023-01-19T20:28:44.829Z,0.50
2023-01-19T20:31:14.943Z,0.50
2023-01-19T20:33:44.329Z,0.50
2023-01-19T20:36:12.719Z,0.50
2023-01-19T20:38:41.317Z,0.40
2023-01-19T20:41:10.770Z,0.30
2023-01-19T20:43:39.169Z,0.30
2023-01-19T20:46:09.085Z,0.30
2023-01-19T20:48:39.106Z,0.20
2023-01-19T20:51:09.577Z,0.30
2023-01-19T20:53:38.168Z,0.30
2023-01-19T20:56:06.866Z,0.50
2023-01-19T20:58:35.144Z,0.60
2023-01-19T21:01:13.034Z,0.60
2023-01-19T21:03:41.549Z,0.70
2023-01-19T21:06:10.403Z,0.80
2023-01-19T21:08:38.594Z,0.80
2023-01-19T21:11:07.529Z,0.90
2023-01-19T21:13:36.083Z,0.90
2023-01-19T21:16:04.998Z,0.90
2023-01-19T21:18:34.715Z,1.00
2023-01-19T21:21:02.775Z,1.00
2023-01-19T21:23:30.807Z,1.10
2023-01-19T21:26:00.828Z,1.00
2023-01-19T21:28:29.616Z,1.00
2023-01-19T21:30:58.057Z,1.00
2023-01-19T21:33:26.221Z,1.00
2023-01-19T21:35:58.126Z,1.00
2023-01-19T21:38:28.801Z,1.10
2023-01-19T21:40:58.021Z,1.10
2023-01-19T21:43:26.791Z,1.10
2023-01-19T21:45:54.889Z,1.10
2023-01-19T21:48:22.965Z,1.10
2023-01-19T21:50:59.127Z,1.10
2023-01-19T21:53:27.282Z,1.10
2023-01-19T21:55:55.338Z,1.10
2023-01-19T21:58:24.022Z,1.10
2023-01-19T22:00:52.309Z,1.10
2023-01-19T22:03:20.426Z,1.10
2023-01-19T22:05:48.525Z,1.10
2023-01-19T22:08:17.987Z,1.10
2023-01-19T22:10:46.094Z,1.10
2023-01-19T22:13:14.164Z,1.10
2023-01-19T22:15:42.310Z,1.10
2023-01-19T22:18:10.367Z,1.10
2023-01-19T22:20:38.452Z,1.10
2023-01-19T22:23:06.611Z,1.00
2023-01-19T22:25:36.124Z,0.90
2023-01-19T22:28:04.316Z,0.90
2023-01-19T22:30:32.471Z,0.90
2023-01-19T22:33:00.610Z,0.80
2023-01-19T22:35:28.667Z,0.80
2023-01-19T22:37:56.726Z,0.80
2023-01-19T22:40:24.802Z,0.80
2023-01-19T22:42:54.189Z,0.80
2023-01-19T22:45:22.267Z,0.80
2023-01-19T22:47:50.334Z,0.80
2023-01-19T22:50:18.552Z,0.80
2023-01-19T22:52:46.562Z,0.80
2023-01-19T22:55:15.043Z,0.80
2023-01-19T22:57:43.455Z,0.70
2023-01-19T23:00:14.712Z,0.70
2023-01-19T23:02:42.777Z,0.80
2023-01-19T23:05:11.191Z,0.70
2023-01-19T23:07:39.806Z,0.70
2023-01-19T23:10:09.767Z,0.70
2023-01-19T23:12:37.850Z,0.60
2023-01-19T23:15:06.811Z,0.60
2023-01-19T23:17:36.183Z,0.60
2023-01-19T23:20:04.905Z,0.60
2023-01-19T23:22:32.986Z,0.60
2023-01-19T23:25:01.081Z,0.60
2023-01-19T23:27:29.169Z,0.70
2023-01-19T23:29:57.235Z,0.70
2023-01-19T23:32:25.430Z,0.70
2023-01-19T23:34:55.244Z,0.70
2023-01-19T23:37:23.381Z,0.70
2023-01-19T23:39:51.410Z,0.70
2023-01-19T23:42:19.516Z,0.70
2023-01-19T23:44:47.590Z,0.80
2023-01-19T23:47:15.686Z,0.80
2023-01-19T23:49:43.721Z,0.80
2023-01-19T23:52:13.212Z,0.80
2023-01-19T23:54:41.312Z,0.80
2023-01-19T23:57:09.335Z,0.80
2023-01-19T23:59:37.401Z,0.80
